createdAt,value
2022-09-16T00:00:51.645Z,99988.00
2022-09-16T00:03:18.899Z,99998.41
2022-09-16T00:05:50.463Z,99999.28
2022-09-16T00:08:18.016Z,99999.28
2022-09-16T00:10:44.541Z,99999.28
2022-09-16T00:13:12.327Z,100000.97
2022-09-16T00:15:43.765Z,100004.41
2022-09-16T00:18:11.349Z,100006.13
2022-09-16T00:20:49.377Z,100002.63
2022-09-16T00:23:16.297Z,100002.59
2022-09-16T00:25:42.800Z,100000.84
2022-09-16T00:28:09.529Z,100001.69
2022-09-16T00:30:36.376Z,100001.69
2022-09-16T00:33:02.913Z,100002.56
2022-09-16T00:35:29.465Z,100000.81
2022-09-16T00:37:55.915Z,99999.06
2022-09-16T00:40:23.024Z,100000.81
2022-09-16T00:42:49.501Z,100004.25
2022-09-16T00:45:19.618Z,99997.28
2022-09-16T00:47:50.643Z,100005.06
2022-09-16T00:50:38.439Z,100010.25
2022-09-16T00:53:06.865Z,100017.19
2022-09-16T00:55:35.722Z,100016.31
2022-09-16T00:58:32.935Z,100017.19
2022-09-16T01:00:59.522Z,100012.81
2022-09-16T01:03:26.455Z,100017.13
2022-09-16T01:05:52.910Z,100007.56
2022-09-16T01:08:19.417Z,100011.03
2022-09-16T01:10:45.936Z,100005.81
2022-09-16T01:13:14.200Z,100003.22
2022-09-16T01:16:12.737Z,100010.06
2022-09-16T01:19:02.491Z,100011.78
2022-09-16T01:22:28.351Z,100007.41
2022-09-16T01:24:59.995Z,100013.47
2022-09-16T01:27:34.185Z,100016.03
2022-09-16T01:30:09.270Z,100011.69
2022-09-16T01:33:05.185Z,100015.94
2022-09-16T01:36:00.402Z,100009.06
2022-09-16T01:38:53.386Z,100007.22
2022-09-16T01:41:48.857Z,100013.31
2022-09-16T01:44:26.882Z,100008.09
2022-09-16T01:47:03.369Z,100007.22
2022-09-16T01:49:40.605Z,100007.19
2022-09-16T01:52:31.713Z,100012.38
2022-09-16T01:55:04.454Z,100005.44
2022-09-16T01:57:38.476Z,100011.50
2022-09-16T02:00:11.088Z,100000.22
2022-09-16T02:03:01.529Z,100006.25
2022-09-16T02:05:33.689Z,100011.44
2022-09-16T02:08:06.119Z,100010.53
2022-09-16T02:10:38.291Z,100008.78
2022-09-16T02:13:17.993Z,100007.00
2022-09-16T02:15:48.944Z,100007.03
2022-09-16T02:18:19.269Z,100008.78
2022-09-16T02:20:47.063Z,100008.78
2022-09-16T02:23:20.931Z,100005.28
2022-09-16T02:25:49.208Z,100013.94
2022-09-16T02:28:29.882Z,100007.00
2022-09-16T02:30:58.446Z,100012.19
2022-09-16T02:33:31.084Z,100006.97
2022-09-16T02:35:57.808Z,100007.84
2022-09-16T02:38:27.108Z,100004.38
2022-09-16T02:40:59.701Z,100002.63
2022-09-16T02:43:26.742Z,100002.63
2022-09-16T02:46:04.576Z,100006.97
2022-09-16T02:48:53.961Z,100007.81
2022-09-16T02:51:31.923Z,100016.47
2022-09-16T02:54:32.444Z,100006.88
2022-09-16T02:56:59.211Z,100012.06
2022-09-16T02:59:25.832Z,100018.06
2022-09-16T03:01:52.656Z,100017.19
2022-09-16T03:04:20.511Z,100013.72
2022-09-16T03:06:47.550Z,100010.25
2022-09-16T03:09:15.622Z,100007.63
2022-09-16T03:12:04.082Z,100013.72
2022-09-16T03:14:54.121Z,100014.56
2022-09-16T03:17:33.525Z,100006.75
2022-09-16T03:20:10.941Z,100009.38
2022-09-16T03:22:51.446Z,99996.38
2022-09-16T03:25:32.815Z,100011.09
2022-09-16T03:28:10.051Z,100003.28
2022-09-16T03:30:43.963Z,99992.88
2022-09-16T03:33:18.259Z,99995.44
2022-09-16T03:35:47.194Z,99994.56
2022-09-16T03:38:13.902Z,99994.56
2022-09-16T03:40:42.511Z,99999.78
2022-09-16T03:43:13.521Z,99992.81
2022-09-16T03:45:42.904Z,100001.50
2022-09-16T03:48:10.939Z,99994.53
2022-09-16T03:50:37.457Z,99999.72
2022-09-16T03:53:04.037Z,99993.63
2022-09-16T03:55:30.640Z,99989.31
2022-09-16T03:57:57.239Z,99992.75
2022-09-16T04:00:23.713Z,99993.66
2022-09-16T04:02:50.350Z,99993.63
2022-09-16T04:05:16.967Z,99986.66
2022-09-16T04:07:43.442Z,99991.00
2022-09-16T04:10:12.406Z,99995.31
2022-09-16T04:12:39.013Z,99992.63
2022-09-16T04:15:05.957Z,99990.91
2022-09-16T04:17:33.127Z,99989.16
2022-09-16T04:19:59.888Z,99989.16
2022-09-16T04:22:29.773Z,99985.66
2022-09-16T04:24:56.743Z,99983.91
2022-09-16T04:27:23.662Z,99976.09
2022-09-16T04:29:50.115Z,99976.06
2022-09-16T04:32:16.689Z,99976.91
2022-09-16T04:34:43.344Z,99970.81
2022-09-16T04:37:09.809Z,99967.34
2022-09-16T04:39:36.287Z,99976.03
2022-09-16T04:42:03.088Z,99971.66
2022-09-16T04:44:30.279Z,99980.28
2022-09-16T04:46:57.023Z,99983.75
2022-09-16T04:49:23.665Z,99975.91
2022-09-16T04:51:52.013Z,99980.25
2022-09-16T04:54:18.567Z,99983.75
2022-09-16T04:56:45.085Z,99987.22
2022-09-16T04:59:11.528Z,99979.41
2022-09-16T05:01:39.395Z,99983.75
2022-09-16T05:04:07.525Z,99988.16
2022-09-16T05:06:36.718Z,99987.28
2022-09-16T05:09:03.825Z,99986.38
2022-09-16T05:11:33.884Z,99989.88
2022-09-16T05:14:05.744Z,99995.97
2022-09-16T05:16:32.957Z,99995.16
2022-09-16T05:19:00.636Z,99997.81
2022-09-16T05:21:28.158Z,99989.25
2022-09-16T05:23:55.937Z,99985.91
2022-09-16T05:26:24.482Z,99994.63
2022-09-16T05:28:51.068Z,99990.41
2022-09-16T05:31:18.748Z,99987.00
2022-09-16T05:33:58.355Z,99987.03
2022-09-16T05:36:25.992Z,99984.47
2022-09-16T05:39:18.392Z,99990.56
2022-09-16T05:41:39.436Z,99988.81
2022-09-16T05:44:08.755Z,99996.63
2022-09-16T05:46:35.526Z,99993.16
2022-09-16T05:49:02.398Z,99990.63
2022-09-16T05:51:28.842Z,99994.09
2022-09-16T05:53:55.894Z,99996.72
2022-09-16T05:56:25.895Z,99995.03
2022-09-16T05:58:59.967Z,99993.31
2022-09-16T06:01:29.502Z,99995.94
2022-09-16T06:03:56.423Z,99988.16
2022-09-16T06:06:24.207Z,99988.22
2022-09-16T06:08:51.914Z,99987.38
2022-09-16T06:11:18.684Z,99989.16
2022-09-16T06:13:45.134Z,99988.34
2022-09-16T06:16:11.843Z,99981.44
2022-09-16T06:18:38.445Z,99990.19
2022-09-16T06:21:07.570Z,99995.41
2022-09-16T06:23:34.830Z,99982.41
2022-09-16T06:26:16.891Z,99990.25
2022-09-16T06:28:44.216Z,99979.84
2022-09-16T06:31:13.852Z,99980.78
2022-09-16T06:33:40.893Z,99984.34
2022-09-16T06:36:16.457Z,99980.06
2022-09-16T06:38:43.437Z,99974.84
2022-09-16T06:41:11.668Z,99981.84
2022-09-16T06:43:38.622Z,99972.28
2022-09-16T06:46:19.181Z,99970.56
2022-09-16T06:48:52.250Z,99971.56
2022-09-16T06:51:27.914Z,99973.31
2022-09-16T06:53:59.179Z,99969.94
2022-09-16T06:56:25.775Z,99968.28
2022-09-16T06:58:53.342Z,99971.84
2022-09-16T07:01:22.024Z,99978.84
2022-09-16T07:03:50.745Z,99977.09
2022-09-16T07:06:18.867Z,99968.44
2022-09-16T07:08:45.933Z,99975.41
2022-09-16T07:11:19.248Z,99970.28
2022-09-16T07:13:47.235Z,99970.31
2022-09-16T07:16:17.056Z,99977.34
2022-09-16T07:18:43.754Z,99973.03
2022-09-16T07:21:13.842Z,99981.78
2022-09-16T07:23:41.590Z,99982.69
2022-09-16T07:26:14.531Z,99976.59
2022-09-16T07:28:42.450Z,99987.94
2022-09-16T07:31:14.830Z,99983.66
2022-09-16T07:33:43.257Z,99984.59
2022-09-16T07:36:12.161Z,99987.28
2022-09-16T07:38:38.797Z,99993.41
2022-09-16T07:41:11.371Z,99993.44
2022-09-16T07:43:39.008Z,99990.94
2022-09-16T07:46:05.946Z,99993.56
2022-09-16T07:48:35.221Z,99994.47
2022-09-16T07:51:04.906Z,99991.91
2022-09-16T07:53:32.168Z,99994.53
2022-09-16T07:56:03.802Z,99997.16
2022-09-16T07:58:30.568Z,99995.38
2022-09-16T08:01:03.361Z,99996.31
2022-09-16T08:03:31.074Z,99987.69
2022-09-16T08:06:06.165Z,99992.94
2022-09-16T08:08:33.269Z,99992.94
2022-09-16T08:11:00.753Z,99991.19
2022-09-16T08:13:29.235Z,99993.75
2022-09-16T08:15:56.262Z,99992.84
2022-09-16T08:18:22.741Z,99998.91
2022-09-16T08:20:49.227Z,99999.81
2022-09-16T08:23:15.666Z,99986.81
2022-09-16T08:25:42.518Z,99988.63
2022-09-16T08:28:16.378Z,99990.44
2022-09-16T08:30:43.980Z,99996.63
2022-09-16T08:33:10.731Z,99985.34
2022-09-16T08:35:37.203Z,99992.41
2022-09-16T08:38:03.905Z,99988.97
2022-09-16T08:40:34.681Z,99994.19
2022-09-16T08:43:38.945Z,99983.81
2022-09-16T08:46:20.835Z,99992.56
2022-09-16T08:49:15.852Z,99991.69
2022-09-16T08:51:43.013Z,100003.91
2022-09-16T08:54:27.334Z,99996.91
2022-09-16T08:57:00.375Z,99994.28
2022-09-16T08:59:29.017Z,99995.16
2022-09-16T09:02:19.093Z,99988.16
2022-09-16T09:04:45.775Z,99984.69
2022-09-16T09:07:52.861Z,99991.75
2022-09-16T09:10:24.788Z,99985.66
2022-09-16T09:13:28.954Z,99985.72
2022-09-16T09:16:07.289Z,99996.25
2022-09-16T09:18:42.096Z,99993.66
2022-09-16T09:21:27.106Z,99997.19
2022-09-16T09:24:17.052Z,99990.16
2022-09-16T09:26:48.845Z,99985.03
2022-09-16T09:29:40.647Z,99989.41
2022-09-16T09:32:38.328Z,99998.13
2022-09-16T09:36:02.787Z,99995.56
2022-09-16T09:38:40.012Z,99987.72
2022-09-16T09:41:14.671Z,99981.69
2022-09-16T09:43:51.830Z,99972.94
2022-09-16T09:46:25.116Z,99979.97
2022-09-16T09:49:13.767Z,99973.84
2022-09-16T09:51:55.635Z,99975.59
2022-09-16T09:54:25.121Z,99968.66
2022-09-16T09:56:55.494Z,99964.28
2022-09-16T09:59:54.216Z,99966.00
2022-09-16T10:02:22.231Z,99960.81
2022-09-16T10:04:48.979Z,99959.03
2022-09-16T10:07:19.344Z,99974.78
2022-09-16T10:09:53.714Z,99967.78
2022-09-16T10:12:31.717Z,99966.91
2022-09-16T10:14:58.453Z,99962.56
2022-09-16T10:17:25.905Z,99942.47
2022-09-16T10:20:06.562Z,99949.44
2022-09-16T10:22:35.011Z,99952.06
2022-09-16T10:25:24.314Z,99947.72
2022-09-16T10:27:56.397Z,99945.09
2022-09-16T10:32:56.726Z,99947.72
2022-09-16T10:35:28.224Z,99948.59
2022-09-16T10:38:04.038Z,99951.19
2022-09-16T10:40:31.120Z,99950.31
2022-09-16T10:43:03.961Z,99942.47
2022-09-16T10:45:34.042Z,99947.72
2022-09-16T10:48:05.034Z,99945.09
2022-09-16T10:50:33.972Z,99940.72
2022-09-16T10:53:00.415Z,99928.50
2022-09-16T10:55:30.158Z,99937.25
2022-09-16T10:58:14.971Z,99932.00
2022-09-16T11:01:01.266Z,99939.84
2022-09-16T11:03:41.045Z,99949.47
2022-09-16T11:06:32.386Z,99938.13
2022-09-16T11:09:29.980Z,99938.09
2022-09-16T11:12:25.182Z,99945.09
2022-09-16T11:15:09.180Z,99931.13
2022-09-16T11:17:51.779Z,99933.75
2022-09-16T11:20:36.874Z,99925.00
2022-09-16T11:23:14.441Z,99925.00
2022-09-16T11:25:57.001Z,99916.22
2022-09-16T11:28:55.323Z,99924.13
2022-09-16T11:31:55.204Z,99923.22
2022-09-16T11:34:59.281Z,99926.75
2022-09-16T11:37:35.194Z,99911.03
2022-09-16T11:40:21.119Z,99927.59
2022-09-16T11:43:21.344Z,99911.03
2022-09-16T11:45:56.437Z,99917.16
2022-09-16T11:48:47.999Z,99925.00
2022-09-16T11:51:41.730Z,99927.63
2022-09-16T11:54:25.027Z,99925.00
2022-09-16T11:56:59.782Z,99924.13
2022-09-16T11:59:40.185Z,99914.56
2022-09-16T12:02:24.505Z,99904.06
2022-09-16T12:05:00.759Z,99899.69
2022-09-16T12:07:37.691Z,99912.81
2022-09-16T12:10:13.184Z,99904.94
2022-09-16T12:12:44.356Z,99911.03
2022-09-16T12:15:41.957Z,99896.19
2022-09-16T12:18:17.622Z,99904.03
2022-09-16T12:20:47.773Z,99893.56
2022-09-16T12:23:18.667Z,99900.53
2022-09-16T12:26:01.078Z,99888.28
2022-09-16T12:28:45.023Z,99887.41
2022-09-16T12:31:21.694Z,99889.16
2022-09-16T12:33:56.112Z,99880.38
2022-09-16T12:36:28.396Z,99882.06
2022-09-16T12:38:58.164Z,99857.56
2022-09-16T12:41:37.426Z,99874.16
2022-09-16T12:44:41.221Z,99865.34
2022-09-16T12:47:16.789Z,99867.09
2022-09-16T12:50:20.902Z,99868.84
2022-09-16T12:53:11.166Z,99869.75
2022-09-16T12:55:48.516Z,99853.16
2022-09-16T12:58:17.995Z,99861.00
2022-09-16T13:00:58.928Z,99863.63
2022-09-16T13:03:27.774Z,99874.22
2022-09-16T13:05:55.253Z,99875.09
2022-09-16T13:08:29.946Z,99860.31
2022-09-16T13:11:38.949Z,99861.13
2022-09-16T13:13:55.603Z,99867.25
2022-09-16T13:16:36.942Z,99856.78
2022-09-16T13:19:38.755Z,99854.16
2022-09-16T13:22:12.436Z,99850.66
2022-09-16T13:24:55.028Z,99855.91
2022-09-16T13:27:32.242Z,99846.31
2022-09-16T13:30:12.921Z,99848.94
2022-09-16T13:32:50.251Z,99836.72
2022-09-16T13:35:16.618Z,99834.94
2022-09-16T13:37:43.499Z,99834.94
2022-09-16T13:40:17.274Z,99829.69
2022-09-16T13:42:43.755Z,99821.81
2022-09-16T13:45:40.765Z,99816.50
2022-09-16T13:48:13.531Z,99826.06
2022-09-16T13:50:43.752Z,99821.63
2022-09-16T13:53:16.537Z,99823.41
2022-09-16T13:55:43.192Z,99824.25
2022-09-16T13:58:18.484Z,99837.34
2022-09-16T14:01:14.294Z,99831.25
2022-09-16T14:03:55.802Z,99833.88
2022-09-16T14:06:40.272Z,99855.69
2022-09-16T14:09:16.685Z,99880.19
2022-09-16T14:11:56.870Z,99860.06
2022-09-16T14:17:27.613Z,99836.50
2022-09-16T14:19:58.354Z,99833.94
2022-09-16T14:22:27.423Z,99831.34
2022-09-16T14:25:05.860Z,99827.81
2022-09-16T14:27:39.790Z,99832.19
2022-09-16T14:30:14.161Z,99839.19
2022-09-16T14:32:40.931Z,99828.72
2022-09-16T14:35:15.063Z,99831.31
2022-09-16T14:37:44.843Z,99840.91
2022-09-16T14:40:16.881Z,99833.91
2022-09-16T14:42:51.988Z,99835.63
2022-09-16T14:45:20.083Z,99842.59
2022-09-16T14:47:51.692Z,99828.63
2022-09-16T14:50:24.625Z,99833.03
2022-09-16T14:53:01.953Z,99841.84
2022-09-16T14:55:31.071Z,99855.94
2022-09-16T14:57:58.526Z,99862.13
2022-09-16T15:00:37.298Z,99868.28
2022-09-16T15:03:22.805Z,99877.91
2022-09-16T15:05:49.380Z,99870.06
2022-09-16T15:12:46.603Z,99874.41
2022-09-16T15:13:30.954Z,99846.53
2022-09-16T15:16:11.393Z,99843.03
2022-09-16T15:18:39.838Z,99835.16
2022-09-16T15:21:09.621Z,99837.78
2022-09-16T15:23:38.378Z,99834.28
2022-09-16T15:26:12.667Z,99838.66
2022-09-16T15:28:50.281Z,99836.91
2022-09-16T15:31:28.698Z,99837.75
2022-09-16T15:33:55.800Z,99833.41
2022-09-16T15:36:37.086Z,99836.06
2022-09-16T15:39:04.559Z,99830.78
2022-09-16T15:41:31.228Z,99825.56
2022-09-16T15:43:58.729Z,99815.94
2022-09-16T15:46:25.211Z,99824.69
2022-09-16T15:48:55.740Z,99819.44
2022-09-16T15:51:43.623Z,99822.94
2022-09-16T15:54:32.733Z,99802.88
2022-09-16T15:57:11.898Z,99806.34
2022-09-16T15:59:44.033Z,99797.59
2022-09-16T16:02:31.025Z,99795.88
2022-09-16T16:05:12.754Z,99799.34
2022-09-16T16:07:54.387Z,99801.97
2022-09-16T16:10:31.374Z,99802.81
2022-09-16T16:12:59.916Z,99802.84
2022-09-16T16:15:33.634Z,99816.81
2022-09-16T16:18:03.243Z,99810.72
2022-09-16T16:20:32.596Z,99809.84
2022-09-16T16:22:58.986Z,99810.75
2022-09-16T16:25:25.383Z,99809.84
2022-09-16T16:27:51.906Z,99815.97
2022-09-16T16:30:19.220Z,99807.28
2022-09-16T16:32:46.145Z,99803.78
2022-09-16T16:35:12.865Z,99798.56
2022-09-16T16:37:47.626Z,99795.03
2022-09-16T16:40:15.218Z,99787.19
2022-09-16T16:42:43.463Z,99779.34
2022-09-16T16:45:12.345Z,99792.44
2022-09-16T16:47:39.456Z,99783.72
2022-09-16T16:50:06.128Z,99779.34
2022-09-16T16:52:32.570Z,99781.94
2022-09-16T16:54:58.949Z,99774.97
2022-09-16T16:57:25.344Z,99781.06
2022-09-16T16:59:52.172Z,99782.81
2022-09-16T17:02:18.622Z,99780.22
2022-09-16T17:04:45.061Z,99777.59
2022-09-16T17:07:27.925Z,99766.25
2022-09-16T17:09:55.779Z,99765.38
2022-09-16T17:12:22.205Z,99775.84
2022-09-16T17:14:48.592Z,99767.09
2022-09-16T17:17:14.993Z,99781.06
2022-09-16T17:19:41.469Z,99785.41
2022-09-16T17:22:07.925Z,99774.94
2022-09-16T17:24:34.879Z,99767.09
2022-09-16T17:27:01.495Z,99773.19
2022-09-16T17:29:27.878Z,99787.13
2022-09-16T17:31:56.833Z,99784.47
2022-09-16T17:34:23.261Z,99787.09
2022-09-16T17:36:49.740Z,99783.59
2022-09-16T17:39:18.747Z,99792.31
2022-09-16T17:41:46.489Z,99785.34
2022-09-16T17:44:13.560Z,99785.31
2022-09-16T17:46:41.110Z,99797.50
2022-09-16T17:49:12.994Z,99782.69
2022-09-16T17:51:39.476Z,99792.25
2022-09-16T17:54:06.709Z,99785.28
2022-09-16T17:56:33.149Z,99783.56
2022-09-16T17:58:59.614Z,99778.34
2022-09-16T18:01:26.783Z,99770.47
2022-09-16T18:03:55.284Z,99783.50
2022-09-16T18:06:22.650Z,99781.78
2022-09-16T18:08:50.058Z,99799.19
2022-09-16T18:11:17.360Z,99786.03
2022-09-16T18:13:44.041Z,99783.44
2022-09-16T18:16:16.813Z,99779.94
2022-09-16T18:18:44.513Z,99781.66
2022-09-16T18:21:16.573Z,99774.66
2022-09-16T18:23:43.417Z,99761.63
2022-09-16T18:26:11.865Z,99772.06
2022-09-16T18:29:05.195Z,99779.88
2022-09-16T18:31:27.112Z,99784.22
2022-09-16T18:33:54.907Z,99780.75
2022-09-16T18:36:25.147Z,99780.69
2022-09-16T18:38:56.969Z,99782.47
2022-09-16T18:41:26.101Z,99780.75
2022-09-16T18:43:58.522Z,99777.25
2022-09-16T18:46:29.869Z,99779.00
2022-09-16T18:48:56.625Z,99788.53
2022-09-16T18:51:27.951Z,99781.56
2022-09-16T18:53:57.573Z,99781.56
2022-09-16T18:56:25.525Z,99771.97
2022-09-16T18:59:17.215Z,99783.28
2022-09-16T19:01:39.760Z,99761.53
2022-09-16T19:04:09.475Z,99763.25
2022-09-16T19:06:43.176Z,99750.19
2022-09-16T19:09:12.044Z,99753.66
2022-09-16T19:11:38.844Z,99753.66
2022-09-16T19:14:06.584Z,99752.78
2022-09-16T19:16:33.152Z,99761.47
2022-09-16T19:19:00.849Z,99750.16
2022-09-16T19:21:27.925Z,99752.75
2022-09-16T19:24:00.112Z,99756.19
2022-09-16T19:26:28.820Z,99747.47
2022-09-16T19:28:55.832Z,99762.25
2022-09-16T19:31:22.400Z,99768.28
2022-09-16T19:33:48.971Z,99775.28
2022-09-16T19:36:19.673Z,99773.53
2022-09-16T19:38:47.097Z,99786.53
2022-09-16T19:41:13.878Z,99766.53
2022-09-16T19:43:40.569Z,99763.03
2022-09-16T19:46:09.231Z,99767.38
2022-09-16T19:48:37.392Z,99782.16
2022-09-16T19:51:05.624Z,99769.09
2022-09-16T19:53:32.191Z,99765.56
2022-09-16T19:56:04.756Z,99770.75
2022-09-16T19:58:33.138Z,99761.19
2022-09-16T20:01:00.276Z,99784.59
2022-09-16T20:03:29.334Z,99781.94
2022-09-16T20:06:10.096Z,99774.13
2022-09-16T20:08:37.981Z,99775.00
2022-09-16T20:11:17.162Z,99768.91
2022-09-16T20:13:51.627Z,99766.28
2022-09-16T20:16:19.209Z,99772.38
2022-09-16T20:18:45.696Z,99771.50
2022-09-16T20:21:17.973Z,99788.00
2022-09-16T20:23:45.092Z,99776.72
2022-09-16T20:26:14.871Z,99782.78
2022-09-16T20:28:42.794Z,99783.66
2022-09-16T20:31:13.599Z,99767.94
2022-09-16T20:33:40.740Z,99781.00
2022-09-16T20:36:09.875Z,99784.47
2022-09-16T20:38:37.652Z,99790.53
2022-09-16T20:41:09.539Z,99782.72
2022-09-16T20:43:36.195Z,99790.56
2022-09-16T20:46:09.567Z,99791.41
2022-09-16T20:48:36.155Z,99792.28
2022-09-16T20:51:07.972Z,99794.84
2022-09-16T20:53:36.159Z,99787.88
2022-09-16T20:56:04.620Z,99786.19
2022-09-16T20:58:31.070Z,99797.47
2022-09-16T21:01:10.659Z,99803.41
2022-09-16T21:03:37.111Z,99793.06
2022-09-16T21:06:05.620Z,99796.53
2022-09-16T21:08:36.937Z,99814.78
2022-09-16T21:11:12.529Z,99788.72
2022-09-16T21:13:41.242Z,99800.81
2022-09-16T21:16:09.348Z,99803.41
2022-09-16T21:18:35.801Z,99813.84
2022-09-16T21:21:08.428Z,99816.41
2022-09-16T21:23:35.318Z,99805.09
2022-09-16T21:26:12.472Z,99813.78
2022-09-16T21:28:39.053Z,99800.69
2022-09-16T21:31:07.336Z,99818.88
2022-09-16T21:33:38.116Z,99806.75
2022-09-16T21:36:05.661Z,99802.38
2022-09-16T21:38:33.045Z,99813.56
2022-09-16T21:41:02.318Z,99806.69
2022-09-16T21:43:45.251Z,99805.75
2022-09-16T21:46:13.104Z,99822.31
2022-09-16T21:48:39.630Z,99818.75
2022-09-16T21:51:08.098Z,99816.16
2022-09-16T21:53:37.209Z,99822.16
2022-09-16T21:56:08.515Z,99842.13
2022-09-16T21:58:35.294Z,99843.81
2022-09-16T22:01:11.726Z,99842.13
2022-09-16T22:03:39.724Z,99831.66
2022-09-16T22:06:07.321Z,99834.31
2022-09-16T22:08:33.850Z,99841.28
2022-09-16T22:11:01.945Z,99835.13
2022-09-16T22:13:30.293Z,99837.78
2022-09-16T22:15:57.083Z,99841.16
2022-09-16T22:18:23.626Z,99836.03
2022-09-16T22:20:50.161Z,99834.25
2022-09-16T22:23:16.541Z,99834.28
2022-09-16T22:25:42.971Z,99839.53
2022-09-16T22:28:09.429Z,99835.97
2022-09-16T22:30:35.825Z,99839.53
2022-09-16T22:33:02.223Z,99835.97
2022-09-16T22:35:28.617Z,99840.28
2022-09-16T22:37:54.998Z,99837.66
2022-09-16T22:40:21.452Z,99835.09
2022-09-16T22:42:47.912Z,99841.16
2022-09-16T22:45:14.300Z,99846.41
2022-09-16T22:47:40.692Z,99841.19
2022-09-16T22:50:07.469Z,99844.66
2022-09-16T22:52:33.993Z,99846.38
2022-09-16T22:55:00.388Z,99849.88
2022-09-16T22:57:26.765Z,99849.00
2022-09-16T22:59:53.182Z,99848.94
2022-09-16T23:02:19.617Z,99848.09
2022-09-16T23:04:46.081Z,99845.47
2022-09-16T23:07:13.332Z,99850.69
2022-09-16T23:09:39.720Z,99851.53
2022-09-16T23:12:06.295Z,99845.47
2022-09-16T23:14:32.683Z,99842.84
2022-09-16T23:16:59.176Z,99847.16
2022-09-16T23:19:25.738Z,99839.41
2022-09-16T23:21:52.134Z,99842.03
2022-09-16T23:24:20.878Z,99843.75
2022-09-16T23:26:48.019Z,99842.78
2022-09-16T23:29:15.363Z,99841.13
2022-09-16T23:31:44.346Z,99828.97
2022-09-16T23:34:17.243Z,99842.84
2022-09-16T23:36:44.028Z,99839.28
2022-09-16T23:39:13.255Z,99841.88
2022-09-16T23:41:39.835Z,99846.16
2022-09-16T23:44:06.351Z,99838.38
2022-09-16T23:46:33.361Z,99834.94
2022-09-16T23:49:00.182Z,99839.25
2022-09-16T23:51:28.606Z,99847.06
2022-09-16T23:53:56.546Z,99843.56
2022-09-16T23:56:23.046Z,99847.81
2022-09-16T23:58:50.847Z,99842.59
